sensor_id;sensor_type;location;lat;lon;timestamp;pressure;altitude;pressure_sealevel;temperature;humidity
77077;BME280;66003;52.286;104.306;2023-05-10T00:02:17;95988.13;;;15.76;28.81
77077;BME280;66003;52.286;104.306;2023-05-10T00:04:43;95964.84;;;15.45;29.02
77077;BME280;66003;52.286;104.306;2023-05-10T00:07:09;95958.97;;;15.61;28.68
77077;BME280;66003;52.286;104.306;2023-05-10T00:09:36;95998.22;;;15.87;28.89
77077;BME280;66003;52.286;104.306;2023-05-10T00:12:02;95951.97;;;15.77;28.74
77077;BME280;66003;52.286;104.306;2023-05-10T00:14:28;95979.09;;;15.80;29.13
77077;BME280;66003;52.286;104.306;2023-05-10T00:16:54;95983.19;;;15.86;28.88
77077;BME280;66003;52.286;104.306;2023-05-10T00:19:20;95987.75;;;15.95;28.50
77077;BME280;66003;52.286;104.306;2023-05-10T00:21:46;95985.06;;;15.86;28.53
77077;BME280;66003;52.286;104.306;2023-05-10T00:24:13;95991.34;;;16.16;28.47
77077;BME280;66003;52.286;104.306;2023-05-10T00:26:39;95984.25;;;15.94;28.80
77077;BME280;66003;52.286;104.306;2023-05-10T00:29:05;95984.19;;;16.20;28.85
77077;BME280;66003;52.286;104.306;2023-05-10T00:31:31;95948.00;;;16.21;28.49
77077;BME280;66003;52.286;104.306;2023-05-10T00:33:57;95958.47;;;16.22;28.12
77077;BME280;66003;52.286;104.306;2023-05-10T00:36:23;95973.91;;;16.51;27.71
77077;BME280;66003;52.286;104.306;2023-05-10T00:38:50;96005.50;;;16.80;27.46
77077;BME280;66003;52.286;104.306;2023-05-10T00:41:16;95968.06;;;17.00;27.73
77077;BME280;66003;52.286;104.306;2023-05-10T00:43:42;95948.25;;;17.16;27.18
77077;BME280;66003;52.286;104.306;2023-05-10T00:46:08;95987.78;;;17.21;27.03
77077;BME280;66003;52.286;104.306;2023-05-10T00:48:35;95987.78;;;17.21;26.56
77077;BME280;66003;52.286;104.306;2023-05-10T00:51:02;95994.41;;;17.44;26.85
77077;BME280;66003;52.286;104.306;2023-05-10T00:53:30;96010.63;;;17.44;26.42
77077;BME280;66003;52.286;104.306;2023-05-10T00:55:57;96031.56;;;17.47;25.90
77077;BME280;66003;52.286;104.306;2023-05-10T00:58:23;96000.09;;;17.30;26.29
77077;BME280;66003;52.286;104.306;2023-05-10T01:00:55;95997.50;;;17.55;25.88
77077;BME280;66003;52.286;104.306;2023-05-10T01:03:25;96006.63;;;17.62;26.06
77077;BME280;66003;52.286;104.306;2023-05-10T01:05:52;96014.88;;;17.24;26.57
77077;BME280;66003;52.286;104.306;2023-05-10T01:08:18;95998.47;;;17.50;25.95
77077;BME280;66003;52.286;104.306;2023-05-10T01:10:49;96021.84;;;17.34;26.24
77077;BME280;66003;52.286;104.306;2023-05-10T01:13:38;96027.50;;;17.20;26.83
77077;BME280;66003;52.286;104.306;2023-05-10T01:16:06;95966.91;;;17.09;26.69
77077;BME280;66003;52.286;104.306;2023-05-10T01:18:39;95997.97;;;17.57;26.40
77077;BME280;66003;52.286;104.306;2023-05-10T01:24:12;96033.41;;;17.76;26.15
77077;BME280;66003;52.286;104.306;2023-05-10T01:35:29;96036.38;;;18.16;25.75
77077;BME280;66003;52.286;104.306;2023-05-10T01:38:18;96032.66;;;18.21;25.40
77077;BME280;66003;52.286;104.306;2023-05-10T01:43:38;96004.44;;;18.10;25.29
77077;BME280;66003;52.286;104.306;2023-05-10T01:46:10;95978.59;;;17.88;25.36
77077;BME280;66003;52.286;104.306;2023-05-10T01:48:47;96041.78;;;18.16;25.20
77077;BME280;66003;52.286;104.306;2023-05-10T01:51:19;96058.28;;;18.35;25.69
77077;BME280;66003;52.286;104.306;2023-05-10T01:53:48;96025.00;;;18.23;25.29
77077;BME280;66003;52.286;104.306;2023-05-10T01:56:16;96021.28;;;18.27;25.23
77077;BME280;66003;52.286;104.306;2023-05-10T01:58:48;95994.13;;;18.24;25.09
77077;BME280;66003;52.286;104.306;2023-05-10T02:01:16;96005.34;;;18.59;25.26
77077;BME280;66003;52.286;104.306;2023-05-10T02:03:43;96057.44;;;18.92;25.05
77077;BME280;66003;52.286;104.306;2023-05-10T02:06:12;96059.34;;;19.16;24.24
77077;BME280;66003;52.286;104.306;2023-05-10T02:08:41;96027.78;;;19.08;24.51
77077;BME280;66003;52.286;104.306;2023-05-10T02:11:07;96055.97;;;19.07;24.53
77077;BME280;66003;52.286;104.306;2023-05-10T02:13:37;96055.31;;;18.86;24.78
77077;BME280;66003;52.286;104.306;2023-05-10T02:16:06;96026.66;;;18.72;24.58
77077;BME280;66003;52.286;104.306;2023-05-10T02:18:35;96049.44;;;18.96;24.55
77077;BME280;66003;52.286;104.306;2023-05-10T02:21:03;96045.94;;;19.07;24.66
77077;BME280;66003;52.286;104.306;2023-05-10T02:23:30;96020.00;;;18.94;24.48
77077;BME280;66003;52.286;104.306;2023-05-10T02:26:00;96057.19;;;19.34;24.22
77077;BME280;66003;52.286;104.306;2023-05-10T02:28:28;96052.88;;;19.45;24.08
77077;BME280;66003;52.286;104.306;2023-05-10T02:30:56;96026.91;;;19.44;24.54
77077;BME280;66003;52.286;104.306;2023-05-10T02:33:23;96077.25;;;19.97;24.31
77077;BME280;66003;52.286;104.306;2023-05-10T02:35:50;96094.47;;;20.17;23.42
77077;BME280;66003;52.286;104.306;2023-05-10T02:38:19;96075.50;;;20.33;23.83
77077;BME280;66003;52.286;104.306;2023-05-10T02:40:47;96048.41;;;20.20;23.31
77077;BME280;66003;52.286;104.306;2023-05-10T02:43:15;96082.38;;;20.42;22.95
77077;BME280;66003;52.286;104.306;2023-05-10T02:45:47;96036.91;;;19.96;23.54
77077;BME280;66003;52.286;104.306;2023-05-10T02:48:16;96068.59;;;20.07;23.43
77077;BME280;66003;52.286;104.306;2023-05-10T02:50:50;96040.91;;;19.86;23.22
77077;BME280;66003;52.286;104.306;2023-05-10T02:53:23;96054.69;;;19.53;23.45
77077;BME280;66003;52.286;104.306;2023-05-10T02:55:54;96091.69;;;19.73;23.87
77077;BME280;66003;52.286;104.306;2023-05-10T02:58:23;96095.03;;;19.82;24.56
77077;BME280;66003;52.286;104.306;2023-05-10T03:00:49;96101.38;;;20.14;23.76
77077;BME280;66003;52.286;104.306;2023-05-10T03:03:15;96057.38;;;19.65;24.05
77077;BME280;66003;52.286;104.306;2023-05-10T03:05:41;96091.78;;;19.77;24.33
77077;BME280;66003;52.286;104.306;2023-05-10T03:08:07;96042.81;;;19.58;24.37
77077;BME280;66003;52.286;104.306;2023-05-10T03:10:40;96045.03;;;19.68;24.56
77077;BME280;66003;52.286;104.306;2023-05-10T03:13:16;96102.63;;;20.17;23.75
77077;BME280;66003;52.286;104.306;2023-05-10T03:19:12;96104.03;;;19.59;24.06
77077;BME280;66003;52.286;104.306;2023-05-10T03:21:47;96072.88;;;19.28;24.29
77077;BME280;66003;52.286;104.306;2023-05-10T03:24:16;96074.44;;;19.41;24.31
77077;BME280;66003;52.286;104.306;2023-05-10T03:26:45;96046.59;;;19.17;24.36
77077;BME280;66003;52.286;104.306;2023-05-10T03:29:13;96075.38;;;19.33;24.32
77077;BME280;66003;52.286;104.306;2023-05-10T03:31:40;96077.75;;;19.35;24.33
77077;BME280;66003;52.286;104.306;2023-05-10T03:34:06;96006.59;;;18.73;24.46
77077;BME280;66003;52.286;104.306;2023-05-10T03:36:32;96066.81;;;19.07;24.39
77077;BME280;66003;52.286;104.306;2023-05-10T03:38:59;96091.84;;;19.53;24.41
77077;BME280;66003;52.286;104.306;2023-05-10T03:41:25;96082.38;;;20.14;23.83
77077;BME280;66003;52.286;104.306;2023-05-10T03:43:51;96087.53;;;20.04;24.15
77077;BME280;66003;52.286;104.306;2023-05-10T03:46:17;96087.56;;;19.92;23.75
77077;BME280;66003;52.286;104.306;2023-05-10T03:48:43;96075.94;;;19.91;24.38
77077;BME280;66003;52.286;104.306;2023-05-10T03:51:09;96071.53;;;19.87;23.79
77077;BME280;66003;52.286;104.306;2023-05-10T03:53:35;96080.25;;;20.36;23.84
77077;BME280;66003;52.286;104.306;2023-05-10T03:56:01;96080.97;;;20.20;23.73
77077;BME280;66003;52.286;104.306;2023-05-10T03:58:27;96067.13;;;20.53;23.54
77077;BME280;66003;52.286;104.306;2023-05-10T04:00:54;96058.13;;;20.06;24.07
77077;BME280;66003;52.286;104.306;2023-05-10T04:03:21;96080.06;;;20.01;24.11
77077;BME280;66003;52.286;104.306;2023-05-10T04:05:47;96055.13;;;19.43;24.62
77077;BME280;66003;52.286;104.306;2023-05-10T04:08:13;96072.53;;;19.94;24.01
77077;BME280;66003;52.286;104.306;2023-05-10T04:10:42;96048.94;;;20.10;23.74
77077;BME280;66003;52.286;104.306;2023-05-10T04:13:07;96074.97;;;20.86;23.30
77077;BME280;66003;52.286;104.306;2023-05-10T04:15:34;96025.91;;;20.48;23.41
77077;BME280;66003;52.286;104.306;2023-05-10T04:18:01;96064.28;;;20.62;23.73
77077;BME280;66003;52.286;104.306;2023-05-10T04:20:28;96082.97;;;20.36;24.01
77077;BME280;66003;52.286;104.306;2023-05-10T04:22:54;96082.63;;;20.09;23.95
77077;BME280;66003;52.286;104.306;2023-05-10T04:25:20;96081.31;;;20.47;24.13
77077;BME280;66003;52.286;104.306;2023-05-10T04:27:47;96071.81;;;20.25;23.71
77077;BME280;66003;52.286;104.306;2023-05-10T04:30:14;96043.84;;;20.09;23.95
77077;BME280;66003;52.286;104.306;2023-05-10T04:32:40;96084.41;;;20.17;24.16
77077;BME280;66003;52.286;104.306;2023-05-10T04:35:06;96080.72;;;20.38;23.89
77077;BME280;66003;52.286;104.306;2023-05-10T04:37:33;96079.22;;;20.40;24.20
77077;BME280;66003;52.286;104.306;2023-05-10T04:40:00;96099.00;;;20.13;24.16
77077;BME280;66003;52.286;104.306;2023-05-10T04:42:26;96103.88;;;20.63;24.12
77077;BME280;66003;52.286;104.306;2023-05-10T04:44:52;96086.66;;;19.88;24.24
77077;BME280;66003;52.286;104.306;2023-05-10T04:47:18;96092.56;;;19.77;24.43
77077;BME280;66003;52.286;104.306;2023-05-10T04:49:44;96156.78;;;20.69;24.29
77077;BME280;66003;52.286;104.306;2023-05-10T04:52:10;96146.38;;;20.43;24.15
77077;BME280;66003;52.286;104.306;2023-05-10T04:54:36;96149.03;;;20.99;23.59
77077;BME280;66003;52.286;104.306;2023-05-10T04:57:03;96114.34;;;20.49;23.94
77077;BME280;66003;52.286;104.306;2023-05-10T04:59:29;96123.09;;;20.42;24.17
77077;BME280;66003;52.286;104.306;2023-05-10T05:01:55;96037.63;;;19.53;24.51
77077;BME280;66003;52.286;104.306;2023-05-10T05:04:21;96117.69;;;20.02;24.56
77077;BME280;66003;52.286;104.306;2023-05-10T05:06:49;96138.69;;;20.17;24.77
77077;BME280;66003;52.286;104.306;2023-05-10T05:09:15;96134.97;;;20.10;24.61
77077;BME280;66003;52.286;104.306;2023-05-10T05:11:42;96100.97;;;20.00;24.63
77077;BME280;66003;52.286;104.306;2023-05-10T05:14:08;96076.56;;;20.00;24.70
77077;BME280;66003;52.286;104.306;2023-05-10T05:16:34;96110.44;;;20.34;24.32
77077;BME280;66003;52.286;104.306;2023-05-10T05:19:00;96110.41;;;20.46;24.57
77077;BME280;66003;52.286;104.306;2023-05-10T05:21:27;96096.47;;;20.48;25.02
77077;BME280;66003;52.286;104.306;2023-05-10T05:23:53;96113.88;;;20.75;25.10
77077;BME280;66003;52.286;104.306;2023-05-10T05:26:20;96036.50;;;20.37;24.84
77077;BME280;66003;52.286;104.306;2023-05-10T05:28:47;96088.19;;;20.88;25.05
77077;BME280;66003;52.286;104.306;2023-05-10T05:31:14;96093.34;;;21.09;24.80
77077;BME280;66003;52.286;104.306;2023-05-10T05:33:40;96110.28;;;21.34;25.20
77077;BME280;66003;52.286;104.306;2023-05-10T05:36:06;96101.56;;;21.79;25.58
77077;BME280;66003;52.286;104.306;2023-05-10T05:38:32;96078.59;;;21.41;26.42
77077;BME280;66003;52.286;104.306;2023-05-10T05:40:59;96092.72;;;21.47;27.58
77077;BME280;66003;52.286;104.306;2023-05-10T05:43:25;96096.22;;;22.02;26.13
77077;BME280;66003;52.286;104.306;2023-05-10T05:45:54;96074.41;;;21.63;26.37
77077;BME280;66003;52.286;104.306;2023-05-10T05:48:20;96073.34;;;21.87;26.26
77077;BME280;66003;52.286;104.306;2023-05-10T05:50:46;96064.91;;;21.92;27.08
77077;BME280;66003;52.286;104.306;2023-05-10T05:53:13;96066.84;;;22.11;26.33
77077;BME280;66003;52.286;104.306;2023-05-10T05:55:39;96080.81;;;22.28;26.80
77077;BME280;66003;52.286;104.306;2023-05-10T05:58:05;96056.66;;;22.08;27.11
77077;BME280;66003;52.286;104.306;2023-05-10T06:00:31;96079.13;;;22.66;26.50
77077;BME280;66003;52.286;104.306;2023-05-10T06:02:57;96053.59;;;22.09;27.06
77077;BME280;66003;52.286;104.306;2023-05-10T06:05:23;96043.19;;;21.76;27.71
77077;BME280;66003;52.286;104.306;2023-05-10T06:07:50;96052.16;;;21.57;28.70
77077;BME280;66003;52.286;104.306;2023-05-10T06:10:16;95968.72;;;20.91;29.75
77077;BME280;66003;52.286;104.306;2023-05-10T06:12:42;96026.44;;;21.36;29.51
77077;BME280;66003;52.286;104.306;2023-05-10T06:15:09;96066.94;;;21.60;29.32
77077;BME280;66003;52.286;104.306;2023-05-10T06:17:35;96063.81;;;21.58;29.64
77077;BME280;66003;52.286;104.306;2023-05-10T06:20:02;96046.06;;;21.64;29.50
77077;BME280;66003;52.286;104.306;2023-05-10T06:22:30;96014.34;;;21.52;29.26
77077;BME280;66003;52.286;104.306;2023-05-10T06:24:55;96059.03;;;22.28;28.43
77077;BME280;66003;52.286;104.306;2023-05-10T06:27:21;96058.38;;;21.96;29.27
77077;BME280;66003;52.286;104.306;2023-05-10T06:29:47;96049.84;;;22.37;28.42
77077;BME280;66003;52.286;104.306;2023-05-10T06:32:13;96001.66;;;21.60;29.31
77077;BME280;66003;52.286;104.306;2023-05-10T06:34:40;96067.97;;;21.90;29.43
77077;BME280;66003;52.286;104.306;2023-05-10T06:37:06;96059.59;;;21.80;29.70
77077;BME280;66003;52.286;104.306;2023-05-10T06:39:32;96071.06;;;22.27;29.55
77077;BME280;66003;52.286;104.306;2023-05-10T06:41:58;96070.34;;;21.92;30.37
77077;BME280;66003;52.286;104.306;2023-05-10T06:44:24;96049.78;;;21.75;30.63
77077;BME280;66003;52.286;104.306;2023-05-10T06:46:50;96052.56;;;21.98;29.96
77077;BME280;66003;52.286;104.306;2023-05-10T06:49:18;96081.88;;;22.24;30.22
77077;BME280;66003;52.286;104.306;2023-05-10T06:51:44;96083.06;;;22.88;29.70
77077;BME280;66003;52.286;104.306;2023-05-10T06:54:10;96064.44;;;22.48;30.36
77077;BME280;66003;52.286;104.306;2023-05-10T06:56:36;96079.47;;;23.07;30.22
77077;BME280;66003;52.286;104.306;2023-05-10T06:59:02;96079.38;;;22.77;30.42
77077;BME280;66003;52.286;104.306;2023-05-10T07:01:28;96080.84;;;23.20;31.07
77077;BME280;66003;52.286;104.306;2023-05-10T07:03:54;96076.47;;;22.89;31.10
77077;BME280;66003;52.286;104.306;2023-05-10T07:06:21;95996.22;;;22.18;31.62
77077;BME280;66003;52.286;104.306;2023-05-10T07:08:47;96033.94;;;22.39;31.96
77077;BME280;66003;52.286;104.306;2023-05-10T07:11:13;96032.81;;;22.43;32.68
77077;BME280;66003;52.286;104.306;2023-05-10T07:13:39;96073.44;;;23.20;32.04
77077;BME280;66003;52.286;104.306;2023-05-10T07:16:07;96079.41;;;22.80;33.09
77077;BME280;66003;52.286;104.306;2023-05-10T07:18:33;96033.22;;;22.42;33.53
77077;BME280;66003;52.286;104.306;2023-05-10T07:21:00;96067.88;;;22.67;33.92
77077;BME280;66003;52.286;104.306;2023-05-10T07:23:26;96042.22;;;22.46;33.63
77077;BME280;66003;52.286;104.306;2023-05-10T07:25:53;96079.63;;;23.17;33.18
77077;BME280;66003;52.286;104.306;2023-05-10T07:28:20;96053.00;;;22.61;34.48
77077;BME280;66003;52.286;104.306;2023-05-10T07:30:46;96026.41;;;22.32;34.50
77077;BME280;66003;52.286;104.306;2023-05-10T07:33:13;96076.78;;;22.64;34.54
77077;BME280;66003;52.286;104.306;2023-05-10T07:35:41;96092.53;;;22.75;34.66
77077;BME280;66003;52.286;104.306;2023-05-10T07:38:09;96083.88;;;22.69;34.50
77077;BME280;66003;52.286;104.306;2023-05-10T07:40:36;96065.16;;;22.45;34.76
77077;BME280;66003;52.286;104.306;2023-05-10T07:43:03;96096.19;;;22.40;35.45
77077;BME280;66003;52.286;104.306;2023-05-10T07:45:29;96101.56;;;22.79;34.88
77077;BME280;66003;52.286;104.306;2023-05-10T07:47:55;96105.03;;;22.14;35.91
77077;BME280;66003;52.286;104.306;2023-05-10T07:50:22;96110.03;;;21.93;36.58
77077;BME280;66003;52.286;104.306;2023-05-10T07:52:48;96101.91;;;21.77;36.70
77077;BME280;66003;52.286;104.306;2023-05-10T07:55:14;96113.63;;;22.16;35.66
77077;BME280;66003;52.286;104.306;2023-05-10T07:57:40;96101.25;;;21.65;36.87
77077;BME280;66003;52.286;104.306;2023-05-10T08:00:07;96111.31;;;21.45;36.81
77077;BME280;66003;52.286;104.306;2023-05-10T08:02:35;96111.75;;;21.31;37.52
77077;BME280;66003;52.286;104.306;2023-05-10T08:05:02;96080.03;;;21.04;37.36
77077;BME280;66003;52.286;104.306;2023-05-10T08:07:30;96095.38;;;20.96;38.35
77077;BME280;66003;52.286;104.306;2023-05-10T08:09:56;96103.06;;;20.78;38.90
77077;BME280;66003;52.286;104.306;2023-05-10T08:12:22;96105.53;;;20.68;39.48
77077;BME280;66003;52.286;104.306;2023-05-10T08:14:55;96111.41;;;20.70;39.73
77077;BME280;66003;52.286;104.306;2023-05-10T08:17:22;96098.34;;;20.60;40.78
77077;BME280;66003;52.286;104.306;2023-05-10T08:19:49;96102.34;;;20.66;40.25
77077;BME280;66003;52.286;104.306;2023-05-10T08:22:16;96093.41;;;20.65;40.37
77077;BME280;66003;52.286;104.306;2023-05-10T08:24:43;96097.44;;;20.55;40.97
77077;BME280;66003;52.286;104.306;2023-05-10T08:27:10;96094.00;;;20.43;41.24
77077;BME280;66003;52.286;104.306;2023-05-10T08:29:36;96104.56;;;20.91;37.54
77077;BME280;66003;52.286;104.306;2023-05-10T08:32:03;96104.53;;;20.44;40.86
77077;BME280;66003;52.286;104.306;2023-05-10T08:34:29;96097.88;;;20.30;41.81
77077;BME280;66003;52.286;104.306;2023-05-10T08:36:57;96081.78;;;20.21;41.25
77077;BME280;66003;52.286;104.306;2023-05-10T08:39:23;96077.19;;;20.09;41.82
77077;BME280;66003;52.286;104.306;2023-05-10T08:41:49;96100.03;;;20.64;38.17
77077;BME280;66003;52.286;104.306;2023-05-10T08:44:17;96093.56;;;20.13;42.39
77077;BME280;66003;52.286;104.306;2023-05-10T08:46:46;96073.09;;;19.88;43.24
77077;BME280;66003;52.286;104.306;2023-05-10T08:49:13;96077.53;;;19.80;43.23
77077;BME280;66003;52.286;104.306;2023-05-10T08:51:46;96096.56;;;19.96;43.87
77077;BME280;66003;52.286;104.306;2023-05-10T08:54:13;96014.25;;;19.36;43.53
77077;BME280;66003;52.286;104.306;2023-05-10T08:56:40;96087.34;;;19.84;44.30
77077;BME280;66003;52.286;104.306;2023-05-10T08:59:06;95993.53;;;19.16;44.99
77077;BME280;66003;52.286;104.306;2023-05-10T09:01:35;96091.56;;;19.82;45.13
77077;BME280;66003;52.286;104.306;2023-05-10T09:04:02;96111.66;;;19.81;44.32
77077;BME280;66003;52.286;104.306;2023-05-10T09:06:30;96079.53;;;19.43;45.73
77077;BME280;66003;52.286;104.306;2023-05-10T09:08:58;96062.25;;;19.35;45.51
77077;BME280;66003;52.286;104.306;2023-05-10T09:11:24;96094.31;;;19.45;46.30
77077;BME280;66003;52.286;104.306;2023-05-10T09:13:51;96111.63;;;19.53;45.84
77077;BME280;66003;52.286;104.306;2023-05-10T09:16:18;96116.91;;;19.37;45.13
77077;BME280;66003;52.286;104.306;2023-05-10T09:18:44;96115.69;;;19.35;45.39
77077;BME280;66003;52.286;104.306;2023-05-10T09:21:10;96106.19;;;19.17;45.80
77077;BME280;66003;52.286;104.306;2023-05-10T09:23:37;96092.78;;;18.96;46.95
77077;BME280;66003;52.286;104.306;2023-05-10T09:26:06;96114.78;;;19.06;46.85
77077;BME280;66003;52.286;104.306;2023-05-10T09:31:16;96121.19;;;19.02;46.82
77077;BME280;66003;52.286;104.306;2023-05-10T09:33:46;96118.94;;;19.40;42.60
77077;BME280;66003;52.286;104.306;2023-05-10T09:36:14;96118.81;;;19.12;46.74
77077;BME280;66003;52.286;104.306;2023-05-10T09:38:48;96117.28;;;19.11;47.40
77077;BME280;66003;52.286;104.306;2023-05-10T09:41:24;96086.22;;;18.85;47.02
77077;BME280;66003;52.286;104.306;2023-05-10T09:43:55;96107.31;;;19.03;47.11
77077;BME280;66003;52.286;104.306;2023-05-10T09:46:23;96094.91;;;19.02;47.22
77077;BME280;66003;52.286;104.306;2023-05-10T09:48:50;96113.66;;;19.07;47.23
77077;BME280;66003;52.286;104.306;2023-05-10T09:51:23;96124.34;;;19.40;46.62
77077;BME280;66003;52.286;104.306;2023-05-10T09:54:10;96093.53;;;19.45;45.33
77077;BME280;66003;52.286;104.306;2023-05-10T09:56:38;96096.59;;;19.43;46.66
77077;BME280;66003;52.286;104.306;2023-05-10T09:59:08;96137.22;;;19.80;46.20
77077;BME280;66003;52.286;104.306;2023-05-10T10:01:35;96051.22;;;19.28;46.52
77077;BME280;66003;52.286;104.306;2023-05-10T10:04:07;96123.34;;;19.97;46.00
77077;BME280;66003;52.286;104.306;2023-05-10T10:06:39;96089.03;;;19.89;45.10
77077;BME280;66003;52.286;104.306;2023-05-10T10:09:07;96113.94;;;20.07;46.50
77077;BME280;66003;52.286;104.306;2023-05-10T10:11:37;96101.72;;;20.13;46.48
77077;BME280;66003;52.286;104.306;2023-05-10T10:14:05;96089.09;;;20.05;46.60
77077;BME280;66003;52.286;104.306;2023-05-10T10:16:32;96020.44;;;19.61;45.88
77077;BME280;66003;52.286;104.306;2023-05-10T10:18:58;96118.91;;;20.17;47.05
77077;BME280;66003;52.286;104.306;2023-05-10T10:21:25;96112.38;;;20.06;46.32
77077;BME280;66003;52.286;104.306;2023-05-10T10:23:52;96126.38;;;20.08;46.85
77077;BME280;66003;52.286;104.306;2023-05-10T10:26:18;96098.44;;;19.79;47.41
77077;BME280;66003;52.286;104.306;2023-05-10T10:28:50;96137.19;;;19.92;47.20
77077;BME280;66003;52.286;104.306;2023-05-10T10:31:28;96131.63;;;20.29;45.43
77077;BME280;66003;52.286;104.306;2023-05-10T10:34:09;96095.03;;;19.82;45.83
77077;BME280;66003;52.286;104.306;2023-05-10T10:36:46;96113.78;;;19.88;46.28
77077;BME280;66003;52.286;104.306;2023-05-10T10:39:12;96113.63;;;19.68;46.53
77077;BME280;66003;52.286;104.306;2023-05-10T10:41:50;96136.53;;;19.71;46.84
77077;BME280;66003;52.286;104.306;2023-05-10T10:44:23;96131.91;;;19.71;46.79
77077;BME280;66003;52.286;104.306;2023-05-10T10:49:31;96123.81;;;19.47;46.73
77077;BME280;66003;52.286;104.306;2023-05-10T10:57:50;96121.53;;;19.61;46.40
77077;BME280;66003;52.286;104.306;2023-05-10T11:00:31;96058.78;;;19.23;46.26
77077;BME280;66003;52.286;104.306;2023-05-10T11:03:04;96130.78;;;19.60;47.03
77077;BME280;66003;52.286;104.306;2023-05-10T11:05:47;96115.66;;;19.59;47.03
77077;BME280;66003;52.286;104.306;2023-05-10T11:08:31;96114.84;;;19.71;46.30
77077;BME280;66003;52.286;104.306;2023-05-10T11:11:06;96127.25;;;19.72;46.82
77077;BME280;66003;52.286;104.306;2023-05-10T11:13:42;96095.78;;;19.43;46.91
77077;BME280;66003;52.286;104.306;2023-05-10T11:16:22;96103.81;;;19.52;47.19
77077;BME280;66003;52.286;104.306;2023-05-10T11:18:57;96127.88;;;19.53;46.97
77077;BME280;66003;52.286;104.306;2023-05-10T11:21:23;96123.44;;;19.36;46.63
77077;BME280;66003;52.286;104.306;2023-05-10T11:23:58;96016.72;;;18.52;47.40
77077;BME280;66003;52.286;104.306;2023-05-10T11:26:30;96101.69;;;18.84;47.90
77077;BME280;66003;52.286;104.306;2023-05-10T11:28:56;96123.69;;;19.07;47.31
77077;BME280;66003;52.286;104.306;2023-05-10T11:31:25;96108.78;;;19.01;47.97
77077;BME280;66003;52.286;104.306;2023-05-10T11:33:55;96083.41;;;18.93;47.81
77077;BME280;66003;52.286;104.306;2023-05-10T11:36:25;96089.94;;;19.04;48.58
77077;BME280;66003;52.286;104.306;2023-05-10T11:38:54;96076.28;;;18.89;48.20
77077;BME280;66003;52.286;104.306;2023-05-10T11:41:21;96099.19;;;19.03;48.02
77077;BME280;66003;52.286;104.306;2023-05-10T11:43:50;96080.81;;;18.85;47.97
77077;BME280;66003;52.286;104.306;2023-05-10T11:46:19;96111.84;;;18.99;48.15
77077;BME280;66003;52.286;104.306;2023-05-10T11:48:51;96068.06;;;18.73;48.27
77077;BME280;66003;52.286;104.306;2023-05-10T11:51:22;96118.41;;;19.10;47.85
77077;BME280;66003;52.286;104.306;2023-05-10T11:53:50;96119.53;;;19.09;48.72
77077;BME280;66003;52.286;104.306;2023-05-10T11:56:17;96110.03;;;19.03;48.37
77077;BME280;66003;52.286;104.306;2023-05-10T11:58:43;96090.84;;;18.96;48.00
77077;BME280;66003;52.286;104.306;2023-05-10T12:01:10;96099.53;;;19.02;48.31
77077;BME280;66003;52.286;104.306;2023-05-10T12:03:37;96075.16;;;18.77;48.09
77077;BME280;66003;52.286;104.306;2023-05-10T12:06:04;96109.69;;;18.93;48.55
77077;BME280;66003;52.286;104.306;2023-05-10T12:08:30;96092.97;;;18.79;48.33
77077;BME280;66003;52.286;104.306;2023-05-10T12:11:07;96082.16;;;18.79;47.86
77077;BME280;66003;52.286;104.306;2023-05-10T12:13:38;96117.34;;;18.91;47.90
77077;BME280;66003;52.286;104.306;2023-05-10T12:16:13;96128.75;;;18.84;48.04
77077;BME280;66003;52.286;104.306;2023-05-10T12:18:40;96105.00;;;18.57;48.76
77077;BME280;66003;52.286;104.306;2023-05-10T12:21:10;96093.56;;;18.39;48.51
77077;BME280;66003;52.286;104.306;2023-05-10T12:23:38;96134.28;;;18.55;48.68
77077;BME280;66003;52.286;104.306;2023-05-10T12:26:05;96088.19;;;18.18;49.05
77077;BME280;66003;52.286;104.306;2023-05-10T12:28:32;96126.66;;;18.24;50.23
77077;BME280;66003;52.286;104.306;2023-05-10T12:31:02;96126.84;;;18.19;50.33
77077;BME280;66003;52.286;104.306;2023-05-10T12:33:38;96126.81;;;18.07;50.83
77077;BME280;66003;52.286;104.306;2023-05-10T12:36:05;96103.56;;;17.73;51.01
77077;BME280;66003;52.286;104.306;2023-05-10T12:38:37;96123.00;;;17.66;52.04
77077;BME280;66003;52.286;104.306;2023-05-10T12:41:10;96145.28;;;17.63;52.47
77077;BME280;66003;52.286;104.306;2023-05-10T12:43:37;96132.31;;;17.48;52.86
77077;BME280;66003;52.286;104.306;2023-05-10T12:46:14;96142.78;;;17.49;52.38
77077;BME280;66003;52.286;104.306;2023-05-10T12:48:42;96119.56;;;17.27;53.01
77077;BME280;66003;52.286;104.306;2023-05-10T12:51:08;96076.19;;;17.03;53.35
77077;BME280;66003;52.286;104.306;2023-05-10T12:53:38;96141.91;;;17.37;53.02
77077;BME280;66003;52.286;104.306;2023-05-10T12:56:04;96140.81;;;17.38;53.13
77077;BME280;66003;52.286;104.306;2023-05-10T12:58:31;96164.09;;;17.51;52.75
77077;BME280;66003;52.286;104.306;2023-05-10T13:00:58;96167.00;;;17.46;52.99
77077;BME280;66003;52.286;104.306;2023-05-10T13:03:25;96167.41;;;17.27;53.20
77077;BME280;66003;52.286;104.306;2023-05-10T13:05:51;96181.09;;;17.22;53.82
77077;BME280;66003;52.286;104.306;2023-05-10T13:08:17;96172.09;;;17.09;54.33
77077;BME280;66003;52.286;104.306;2023-05-10T13:10:48;96188.75;;;17.11;53.80
77077;BME280;66003;52.286;104.306;2023-05-10T13:13:22;96186.59;;;16.96;54.41
77077;BME280;66003;52.286;104.306;2023-05-10T13:15:48;96163.03;;;16.67;54.57